createdAt,value
2024-03-12T00:00:32.220Z,18.17
2024-03-12T00:03:06.127Z,18.03
2024-03-12T00:05:41.336Z,17.70
2024-03-12T00:08:14.428Z,16.57
2024-03-12T00:10:46.329Z,18.60
2024-03-12T00:13:19.841Z,17.37
2024-03-12T00:15:52.119Z,16.67
2024-03-12T00:18:24.139Z,17.53
2024-03-12T00:20:56.219Z,17.73
2024-03-12T00:23:28.143Z,17.43
2024-03-12T00:26:00.269Z,17.70
2024-03-12T00:28:32.404Z,18.20
2024-03-12T00:31:04.512Z,18.27
2024-03-12T00:33:36.782Z,18.83
2024-03-12T00:36:08.743Z,17.73
2024-03-12T00:38:40.825Z,18.43
2024-03-12T00:41:12.696Z,19.07
2024-03-12T00:43:44.583Z,18.43
2024-03-12T00:46:16.507Z,17.37
2024-03-12T00:48:48.608Z,18.43
2024-03-12T00:51:20.585Z,17.67
2024-03-12T00:53:52.430Z,17.93
2024-03-12T00:56:24.323Z,17.23
2024-03-12T00:58:56.257Z,19.07
2024-03-12T01:01:28.333Z,17.50
2024-03-12T01:04:00.395Z,18.77
2024-03-12T01:06:32.352Z,19.03
2024-03-12T01:09:04.369Z,19.07
2024-03-12T01:11:36.247Z,20.43
2024-03-12T01:14:08.114Z,19.67
2024-03-12T01:16:40.089Z,20.33
2024-03-12T01:19:15.095Z,20.23
2024-03-12T01:21:47.032Z,19.77
2024-03-12T01:24:18.896Z,20.87
2024-03-12T01:26:51.285Z,21.43
2024-03-12T01:29:23.265Z,19.43
2024-03-12T01:31:55.185Z,20.07
2024-03-12T01:34:27.051Z,19.23
2024-03-12T01:36:59.003Z,18.77
2024-03-12T01:39:31.012Z,18.43
2024-03-12T01:42:02.997Z,17.53
2024-03-12T01:44:34.936Z,18.73
2024-03-12T01:47:06.884Z,18.17
2024-03-12T01:49:38.773Z,16.97
2024-03-12T01:52:10.723Z,18.53
2024-03-12T01:54:42.685Z,19.37
2024-03-12T01:57:14.525Z,19.17
2024-03-12T01:59:46.405Z,18.80
2024-03-12T02:02:18.290Z,17.97
2024-03-12T02:04:50.224Z,19.33
2024-03-12T02:07:22.123Z,18.47
2024-03-12T02:09:54.209Z,18.73
2024-03-12T02:12:26.300Z,16.53
2024-03-12T02:14:58.434Z,16.63
2024-03-12T02:17:30.330Z,13.83
2024-03-12T02:20:02.425Z,17.33
2024-03-12T02:22:34.291Z,17.17
2024-03-12T02:25:06.296Z,16.07
2024-03-12T02:27:38.471Z,17.63
2024-03-12T02:30:10.471Z,17.87
2024-03-12T02:32:42.677Z,17.13
2024-03-12T02:35:14.961Z,17.93
2024-03-12T02:37:46.860Z,18.23
2024-03-12T02:40:18.891Z,18.13
2024-03-12T02:42:50.952Z,16.67
2024-03-12T02:45:22.841Z,16.87
2024-03-12T02:47:54.773Z,17.73
2024-03-12T02:50:26.847Z,19.83
2024-03-12T02:52:58.694Z,18.03
2024-03-12T02:55:30.584Z,16.97
2024-03-12T02:58:02.564Z,17.60
2024-03-12T03:00:34.730Z,18.07
2024-03-12T03:03:06.701Z,16.53
2024-03-12T03:05:38.748Z,17.10
2024-03-12T03:08:10.678Z,15.90
2024-03-12T03:10:42.545Z,16.57
2024-03-12T03:13:14.455Z,16.37
2024-03-12T03:15:46.473Z,17.07
2024-03-12T03:18:18.519Z,15.67
2024-03-12T03:20:50.445Z,15.27
2024-03-12T03:23:22.419Z,15.17
2024-03-12T03:25:54.467Z,13.60
2024-03-12T03:28:26.461Z,13.47
2024-03-12T03:30:59.558Z,15.87
2024-03-12T03:33:32.084Z,14.60
2024-03-12T03:36:03.987Z,14.43
2024-03-12T03:38:35.879Z,12.57
2024-03-12T03:41:07.776Z,14.27
2024-03-12T03:43:39.827Z,12.70
2024-03-12T03:46:12.170Z,14.93
2024-03-12T03:48:44.544Z,12.93
2024-03-12T03:51:16.452Z,13.60
2024-03-12T03:53:48.367Z,15.20
2024-03-12T03:56:20.404Z,13.87
2024-03-12T03:58:52.314Z,12.40
2024-03-12T04:01:24.433Z,13.47
2024-03-12T04:03:56.830Z,13.30
2024-03-12T04:06:28.924Z,13.03
2024-03-12T04:09:00.893Z,14.10
2024-03-12T04:11:32.903Z,12.90
2024-03-12T04:14:04.841Z,12.87
2024-03-12T04:16:36.814Z,14.67
2024-03-12T04:19:08.864Z,16.03
2024-03-12T04:21:41.137Z,13.87
2024-03-12T04:24:13.323Z,14.10
2024-03-12T04:26:45.310Z,12.87
2024-03-12T04:29:17.213Z,14.97
2024-03-12T04:31:49.156Z,12.93
2024-03-12T04:34:21.149Z,13.40
2024-03-12T04:36:53.449Z,14.30
2024-03-12T04:39:25.400Z,14.27
2024-03-12T04:41:57.540Z,14.03
2024-03-12T04:44:29.664Z,12.47
2024-03-12T04:47:01.572Z,12.80
2024-03-12T04:49:33.596Z,12.90
2024-03-12T04:52:05.606Z,13.73
2024-03-12T04:54:37.710Z,10.77
2024-03-12T04:57:09.720Z,11.60
2024-03-12T04:59:42.142Z,12.93
2024-03-12T05:02:14.145Z,12.17
2024-03-12T05:04:46.452Z,11.70
2024-03-12T05:07:18.500Z,13.33
2024-03-12T05:09:50.467Z,12.90
2024-03-12T05:12:22.406Z,11.63
2024-03-12T05:14:54.664Z,12.20
2024-03-12T05:17:26.790Z,11.90
2024-03-12T05:19:58.697Z,12.77
2024-03-12T05:22:31.011Z,12.47
2024-03-12T05:25:03.063Z,12.03
2024-03-12T05:27:35.372Z,11.33
2024-03-12T05:30:07.542Z,12.00
2024-03-12T05:32:39.477Z,12.57
2024-03-12T05:35:11.741Z,12.37
2024-03-12T05:37:43.707Z,11.40
2024-03-12T05:40:15.826Z,13.30
2024-03-12T05:42:47.889Z,11.67
2024-03-12T05:45:19.866Z,9.87
2024-03-12T05:47:51.864Z,13.20
2024-03-12T05:50:23.985Z,10.73
2024-03-12T05:52:55.878Z,11.57
2024-03-12T05:55:28.348Z,12.07
2024-03-12T05:58:00.815Z,11.27
2024-03-12T06:00:32.966Z,11.10
2024-03-12T06:03:05.021Z,12.07
2024-03-12T06:05:36.974Z,11.73
2024-03-12T06:08:09.694Z,10.67
2024-03-12T06:10:41.564Z,11.03
2024-03-12T06:13:13.517Z,12.43
2024-03-12T06:15:45.674Z,12.33
2024-03-12T06:18:18.361Z,11.00
2024-03-12T06:20:50.276Z,11.57
2024-03-12T06:23:22.442Z,11.87
2024-03-12T06:25:54.414Z,11.80
2024-03-12T06:28:26.958Z,10.43
2024-03-12T06:30:59.037Z,11.10
2024-03-12T06:33:31.199Z,11.27
2024-03-12T06:36:03.609Z,10.60
2024-03-12T06:38:35.583Z,10.63
2024-03-12T06:41:07.483Z,9.50
2024-03-12T06:43:39.428Z,9.73
2024-03-12T06:46:11.497Z,11.50
2024-03-12T06:48:43.681Z,11.03
2024-03-12T06:51:15.773Z,10.40
2024-03-12T06:53:47.696Z,10.97
2024-03-12T06:56:19.645Z,9.90
2024-03-12T06:58:51.511Z,9.90
2024-03-12T07:01:23.781Z,9.67
2024-03-12T07:03:55.999Z,11.17
2024-03-12T07:06:30.209Z,9.40
2024-03-12T07:09:02.248Z,10.23
2024-03-12T07:11:34.487Z,9.73
2024-03-12T07:14:06.643Z,8.70
2024-03-12T07:16:38.489Z,11.27
2024-03-12T07:19:10.526Z,9.30
2024-03-12T07:21:42.690Z,10.13
2024-03-12T07:24:14.662Z,10.50
2024-03-12T07:26:46.596Z,9.87
2024-03-12T07:29:18.920Z,8.97
2024-03-12T07:31:51.374Z,8.63
2024-03-12T07:34:23.465Z,10.17
2024-03-12T07:36:55.447Z,9.47
2024-03-12T07:39:27.444Z,10.60
2024-03-12T07:41:59.404Z,9.10
2024-03-12T07:44:31.299Z,9.67
2024-03-12T07:47:03.215Z,9.63
2024-03-12T07:49:35.127Z,8.60
2024-03-12T07:52:07.387Z,8.87
2024-03-12T07:54:39.562Z,9.20
2024-03-12T07:57:12.110Z,8.33
2024-03-12T07:59:44.049Z,8.87
2024-03-12T08:02:15.958Z,8.10
2024-03-12T08:04:47.930Z,9.30
2024-03-12T08:07:19.956Z,9.10
2024-03-12T08:09:52.147Z,9.27
2024-03-12T08:12:24.299Z,7.77
2024-03-12T08:14:56.267Z,8.17
2024-03-12T08:17:28.459Z,7.93
2024-03-12T08:20:00.421Z,7.93
2024-03-12T08:22:32.305Z,7.53
2024-03-12T08:25:04.369Z,7.77
2024-03-12T08:27:36.763Z,7.80
2024-03-12T08:30:09.174Z,8.07
2024-03-12T08:32:41.318Z,8.97
2024-03-12T08:35:13.450Z,9.07
2024-03-12T08:37:45.446Z,7.80
2024-03-12T08:40:17.536Z,8.97
2024-03-12T08:42:57.484Z,8.63
2024-03-12T08:45:24.779Z,8.47
2024-03-12T08:47:57.232Z,9.83
2024-03-12T08:50:29.263Z,9.20
2024-03-12T08:53:01.245Z,9.07
2024-03-12T08:55:33.148Z,9.00
2024-03-12T08:58:05.120Z,9.57
2024-03-12T09:00:37.112Z,8.53
2024-03-12T09:03:09.257Z,8.07
2024-03-12T09:05:41.364Z,9.03
2024-03-12T09:08:13.271Z,7.97
2024-03-12T09:10:45.186Z,8.00
2024-03-12T09:13:18.883Z,8.53
2024-03-12T09:15:52.617Z,8.60
2024-03-12T09:18:27.228Z,8.43
2024-03-12T09:20:58.074Z,7.27
2024-03-12T09:23:30.185Z,8.67
2024-03-12T09:26:02.202Z,8.30
2024-03-12T09:28:34.082Z,8.53
2024-03-12T09:31:06.017Z,7.53
2024-03-12T09:33:38.217Z,9.40
2024-03-12T09:36:10.104Z,9.03
2024-03-12T09:38:41.982Z,9.50
2024-03-12T09:41:14.100Z,8.80
2024-03-12T09:43:45.979Z,9.80
2024-03-12T09:46:18.256Z,8.80
2024-03-12T09:48:50.621Z,8.87
2024-03-12T09:51:22.950Z,9.30
2024-03-12T09:53:55.098Z,8.77
2024-03-12T09:56:28.553Z,8.53
2024-03-12T09:59:00.600Z,7.73
2024-03-12T10:01:33.027Z,7.90
2024-03-12T10:04:05.124Z,8.13
2024-03-12T10:06:37.227Z,8.40
2024-03-12T10:09:09.333Z,7.80
2024-03-12T10:11:41.386Z,7.77
2024-03-12T10:14:13.718Z,8.57
2024-03-12T10:16:45.673Z,7.03
2024-03-12T10:19:18.121Z,7.93
2024-03-12T10:21:50.172Z,8.20
2024-03-12T10:24:22.136Z,7.43
2024-03-12T10:26:54.032Z,7.63
2024-03-12T10:29:25.903Z,7.63
2024-03-12T10:31:57.921Z,8.07
2024-03-12T10:34:31.337Z,8.67
2024-03-12T10:37:03.402Z,8.60
2024-03-12T10:39:35.629Z,8.83
2024-03-12T10:42:07.779Z,9.47
2024-03-12T10:44:39.731Z,9.57
2024-03-12T10:47:11.899Z,9.13
2024-03-12T10:49:43.928Z,9.57
2024-03-12T10:52:16.046Z,9.87
2024-03-12T10:54:51.478Z,9.07
2024-03-12T10:57:21.578Z,10.13
2024-03-12T10:59:53.611Z,10.37
2024-03-12T11:02:25.582Z,10.00
2024-03-12T11:04:57.507Z,9.47
2024-03-12T11:07:29.519Z,10.60
2024-03-12T11:10:01.428Z,9.80
2024-03-12T11:12:33.346Z,10.17
2024-03-12T11:15:05.191Z,10.80
2024-03-12T11:17:37.150Z,9.30
2024-03-12T11:20:09.251Z,10.10
2024-03-12T11:22:41.446Z,9.80
2024-03-12T11:25:13.464Z,9.20
2024-03-12T11:27:45.596Z,9.90
2024-03-12T11:30:17.618Z,10.20
2024-03-12T11:32:49.594Z,10.07
2024-03-12T11:35:21.525Z,9.83
2024-03-12T11:37:53.580Z,10.87
2024-03-12T11:40:25.607Z,10.17
2024-03-12T11:42:57.536Z,9.50
2024-03-12T11:45:29.727Z,10.40
2024-03-12T11:48:01.652Z,10.53
2024-03-12T11:50:33.564Z,10.70
2024-03-12T11:53:05.430Z,9.77
2024-03-12T11:55:37.325Z,10.20
2024-03-12T11:58:09.301Z,11.37
2024-03-12T12:00:41.250Z,12.03
2024-03-12T12:03:13.373Z,10.70
2024-03-12T12:05:45.806Z,10.70
2024-03-12T12:08:17.953Z,10.10
2024-03-12T12:10:49.929Z,11.77
2024-03-12T12:13:21.941Z,10.37
2024-03-12T12:15:53.975Z,10.60
2024-03-12T12:18:25.885Z,10.67
2024-03-12T12:20:57.852Z,10.53
2024-03-12T12:23:29.934Z,10.20
2024-03-12T12:26:01.966Z,10.10
2024-03-12T12:28:33.966Z,11.27
2024-03-12T12:31:05.908Z,10.03
2024-03-12T12:33:38.070Z,11.13
2024-03-12T12:36:10.226Z,10.67
2024-03-12T12:38:42.509Z,11.97
2024-03-12T12:41:14.553Z,12.37
2024-03-12T12:43:46.567Z,11.97
2024-03-12T12:46:18.772Z,12.20
2024-03-12T12:48:50.836Z,12.20
2024-03-12T12:51:23.645Z,12.30
2024-03-12T12:53:55.589Z,13.00
2024-03-12T12:56:27.646Z,13.00
2024-03-12T12:58:59.572Z,12.90
2024-03-12T13:01:31.669Z,13.07
2024-03-12T13:04:03.799Z,13.93
2024-03-12T13:06:36.137Z,12.33
2024-03-12T13:09:08.067Z,13.40
2024-03-12T13:11:40.021Z,13.70
2024-03-12T13:14:12.106Z,12.50
2024-03-12T13:16:44.162Z,13.90
2024-03-12T13:19:16.383Z,13.80
2024-03-12T13:21:48.607Z,14.67
2024-03-12T13:24:20.648Z,15.07
2024-03-12T13:26:52.692Z,15.67
2024-03-12T13:29:24.639Z,15.20
2024-03-12T13:31:56.643Z,16.33
2024-03-12T13:34:31.148Z,17.20
2024-03-12T13:37:03.477Z,17.60
2024-03-12T13:39:35.540Z,17.60
2024-03-12T13:42:07.762Z,17.60
2024-03-12T13:44:40.074Z,18.63
2024-03-12T13:47:12.201Z,17.37
2024-03-12T13:49:44.149Z,17.20
2024-03-12T13:52:16.240Z,19.17
2024-03-12T13:54:48.856Z,17.03
2024-03-12T13:57:21.163Z,16.67
2024-03-12T13:59:53.230Z,17.60
2024-03-12T14:02:25.189Z,17.87
2024-03-12T14:04:57.811Z,17.30
2024-03-12T14:07:29.853Z,16.70
2024-03-12T14:10:01.856Z,16.50
2024-03-12T14:12:36.970Z,16.63
2024-03-12T14:15:09.339Z,16.87
2024-03-12T14:17:41.240Z,16.57
2024-03-12T14:20:13.444Z,16.27
2024-03-12T14:22:45.611Z,16.50
2024-03-12T14:25:17.745Z,16.73
2024-03-12T14:27:49.819Z,16.83
2024-03-12T14:30:21.868Z,16.17
2024-03-12T14:32:54.052Z,16.60
2024-03-12T14:35:26.374Z,15.40
2024-03-12T14:37:59.371Z,17.27
2024-03-12T14:40:31.360Z,16.07
2024-03-12T14:43:03.530Z,16.43
2024-03-12T14:45:35.650Z,16.20
2024-03-12T14:48:08.181Z,16.47
2024-03-12T14:50:40.429Z,17.03
2024-03-12T14:53:12.450Z,15.83
2024-03-12T14:55:44.517Z,15.93
2024-03-12T14:58:16.810Z,15.73
2024-03-12T15:00:48.953Z,16.50
2024-03-12T15:03:21.051Z,15.60
2024-03-12T15:05:53.171Z,16.30
2024-03-12T15:08:25.153Z,14.97
2024-03-12T15:10:57.227Z,15.43
2024-03-12T15:13:29.844Z,14.30
2024-03-12T15:16:01.911Z,13.90
2024-03-12T15:18:35.651Z,14.83
2024-03-12T15:21:07.790Z,14.07
2024-03-12T15:23:39.955Z,14.33
2024-03-12T15:26:12.167Z,15.73
2024-03-12T15:28:44.243Z,14.00
2024-03-12T15:31:16.833Z,15.07
2024-03-12T15:33:49.261Z,15.30
2024-03-12T15:36:21.335Z,15.33
2024-03-12T15:38:53.445Z,15.57
2024-03-12T15:41:26.580Z,14.07
2024-03-12T15:44:01.165Z,16.63
2024-03-12T15:46:33.433Z,12.57
2024-03-12T15:49:06.025Z,14.63
2024-03-12T15:51:38.617Z,14.37
2024-03-12T15:54:11.160Z,15.10
2024-03-12T15:56:45.557Z,15.57
2024-03-12T15:59:18.868Z,15.07
2024-03-12T16:01:50.952Z,14.47
2024-03-12T16:04:23.544Z,14.47
2024-03-12T16:06:56.523Z,15.07
2024-03-12T16:09:28.424Z,13.80
2024-03-12T16:12:02.740Z,14.20
2024-03-12T16:14:34.806Z,14.67
2024-03-12T16:17:07.062Z,15.23
2024-03-12T16:19:39.238Z,12.53
2024-03-12T16:22:11.389Z,14.47
2024-03-12T16:24:43.453Z,13.20
2024-03-12T16:27:15.402Z,13.27
2024-03-12T16:29:47.426Z,14.60
2024-03-12T16:32:19.360Z,13.53
2024-03-12T16:34:51.659Z,13.40
2024-03-12T16:37:24.021Z,14.33
2024-03-12T16:39:56.101Z,14.60
2024-03-12T16:42:28.002Z,15.00
2024-03-12T16:44:59.894Z,15.63
2024-03-12T16:47:31.984Z,13.47
2024-03-12T16:50:04.054Z,14.93
2024-03-12T16:52:35.952Z,14.77
2024-03-12T16:55:07.968Z,14.90
2024-03-12T16:57:40.099Z,14.70
2024-03-12T17:00:12.375Z,15.77
2024-03-12T17:02:44.684Z,15.90
2024-03-12T17:05:16.626Z,15.93
2024-03-12T17:07:49.043Z,16.50
2024-03-12T17:10:21.105Z,15.70
2024-03-12T17:12:53.480Z,15.03
2024-03-12T17:15:25.590Z,15.33
2024-03-12T17:17:57.536Z,14.47
2024-03-12T17:20:29.753Z,15.10
2024-03-12T17:23:01.649Z,14.93
2024-03-12T17:25:33.585Z,12.80
2024-03-12T17:28:05.751Z,13.33
2024-03-12T17:30:37.898Z,11.57
2024-03-12T17:33:10.056Z,11.03
2024-03-12T17:35:42.268Z,11.67
2024-03-12T17:38:14.178Z,10.70
2024-03-12T17:40:46.162Z,10.13
2024-03-12T17:43:18.304Z,8.77
2024-03-12T17:45:50.363Z,8.83
2024-03-12T17:48:22.244Z,9.37
2024-03-12T17:50:54.212Z,9.70
2024-03-12T17:53:26.186Z,9.67
2024-03-12T17:55:58.122Z,9.53
2024-03-12T17:58:30.089Z,9.50
2024-03-12T18:01:02.260Z,9.53
2024-03-12T18:03:34.292Z,11.43
2024-03-12T18:06:07.046Z,9.33
2024-03-12T18:08:39.112Z,10.27
2024-03-12T18:11:11.830Z,9.30
2024-03-12T18:13:44.477Z,9.13
2024-03-12T18:16:16.639Z,9.73
2024-03-12T18:18:48.839Z,10.27
2024-03-12T18:21:20.958Z,9.93
2024-03-12T18:23:53.381Z,10.23
2024-03-12T18:26:25.516Z,10.43
2024-03-12T18:28:57.741Z,10.20
2024-03-12T18:31:29.883Z,10.83
2024-03-12T18:34:01.866Z,10.00
2024-03-12T18:36:33.945Z,10.53
2024-03-12T18:39:07.283Z,11.27
2024-03-12T18:41:39.228Z,10.93
2024-03-12T18:44:11.212Z,11.53
2024-03-12T18:46:43.447Z,10.57
2024-03-12T18:49:15.623Z,11.43
2024-03-12T18:51:47.872Z,10.83
2024-03-12T18:54:22.584Z,10.43
2024-03-12T18:56:54.667Z,11.90
2024-03-12T18:59:27.453Z,11.13
2024-03-12T19:01:59.802Z,11.20
2024-03-12T19:04:32.141Z,10.67
2024-03-12T19:07:04.289Z,10.80
2024-03-12T19:09:36.670Z,9.97
2024-03-12T19:12:08.847Z,8.87
2024-03-12T19:14:41.330Z,9.07
2024-03-12T19:17:14.169Z,8.43
2024-03-12T19:19:46.564Z,8.07
2024-03-12T19:22:18.782Z,9.63
2024-03-12T19:24:51.015Z,7.27
2024-03-12T19:27:28.428Z,7.90
2024-03-12T19:29:57.842Z,9.17
2024-03-12T19:32:29.810Z,8.40
2024-03-12T19:35:01.993Z,8.10
2024-03-12T19:37:34.049Z,7.57
2024-03-12T19:40:06.454Z,7.77
2024-03-12T19:42:38.651Z,8.40
2024-03-12T19:45:10.704Z,9.07
2024-03-12T19:47:42.815Z,8.93
2024-03-12T19:50:15.000Z,7.67
2024-03-12T19:52:46.950Z,7.87
2024-03-12T19:55:18.982Z,9.37
2024-03-12T19:57:51.576Z,8.60
2024-03-12T20:00:24.461Z,8.63
2024-03-12T20:02:57.078Z,7.87
2024-03-12T20:05:29.774Z,8.23
2024-03-12T20:08:01.675Z,7.80
2024-03-12T20:10:33.852Z,8.60
2024-03-12T20:13:06.382Z,8.90
2024-03-12T20:15:38.726Z,8.60
2024-03-12T20:18:10.867Z,8.83
2024-03-12T20:20:43.040Z,8.90
2024-03-12T20:23:14.933Z,8.37
2024-03-12T20:25:46.965Z,8.43
2024-03-12T20:28:19.002Z,8.37
2024-03-12T20:30:51.105Z,9.00
2024-03-12T20:33:23.401Z,8.67
2024-03-12T20:35:55.470Z,9.37
2024-03-12T20:38:27.929Z,8.17
2024-03-12T20:40:59.946Z,8.20
2024-03-12T20:43:32.188Z,8.23
2024-03-12T20:46:04.077Z,8.20
2024-03-12T20:48:35.970Z,7.57
2024-03-12T20:51:09.480Z,7.77
2024-03-12T20:53:41.299Z,8.27
2024-03-12T20:56:13.246Z,8.63
2024-03-12T20:58:45.106Z,8.43
2024-03-12T21:01:17.324Z,8.07
2024-03-12T21:03:49.387Z,8.63
2024-03-12T21:06:23.743Z,7.93
2024-03-12T21:08:56.968Z,7.60
2024-03-12T21:11:29.373Z,7.83
2024-03-12T21:14:01.621Z,6.97
2024-03-12T21:16:33.800Z,7.90
2024-03-12T21:19:05.950Z,7.03
2024-03-12T21:21:38.392Z,7.60
2024-03-12T21:24:10.324Z,8.20
2024-03-12T21:26:42.845Z,7.47
2024-03-12T21:29:15.562Z,7.30
2024-03-12T21:31:47.713Z,7.73
2024-03-12T21:34:19.685Z,6.97
2024-03-12T21:36:53.369Z,7.30
2024-03-12T21:39:25.284Z,7.33
2024-03-12T21:41:57.190Z,6.80
2024-03-12T21:44:29.088Z,7.83
2024-03-12T21:47:01.542Z,7.43
2024-03-12T21:49:33.455Z,7.90
2024-03-12T21:52:05.382Z,7.30
2024-03-12T21:54:37.394Z,8.07
2024-03-12T21:57:09.330Z,7.43
2024-03-12T21:59:41.241Z,7.67
2024-03-12T22:02:13.235Z,7.57
2024-03-12T22:04:45.233Z,7.67
2024-03-12T22:07:20.130Z,7.60
2024-03-12T22:09:52.494Z,8.10
2024-03-12T22:12:24.457Z,8.07
2024-03-12T22:14:57.594Z,8.20
2024-03-12T22:17:29.793Z,8.50
2024-03-12T22:20:01.781Z,8.53
2024-03-12T22:22:34.121Z,8.60
2024-03-12T22:25:06.307Z,8.53
2024-03-12T22:27:38.433Z,7.67
2024-03-12T22:30:10.366Z,8.13
2024-03-12T22:32:42.454Z,8.23
2024-03-12T22:35:14.868Z,7.30
2024-03-12T22:37:47.115Z,7.17
2024-03-12T22:40:19.742Z,6.57
2024-03-12T22:42:52.667Z,7.40
2024-03-12T22:45:24.888Z,7.30
2024-03-12T22:47:58.100Z,7.33
2024-03-12T22:50:32.223Z,5.93
2024-03-12T22:53:04.329Z,6.90
2024-03-12T22:55:36.574Z,6.30
2024-03-12T22:58:08.731Z,6.97
2024-03-12T23:00:40.758Z,6.60
2024-03-12T23:03:12.784Z,7.13
2024-03-12T23:05:44.881Z,6.30
2024-03-12T23:08:18.689Z,5.93
2024-03-12T23:10:50.980Z,6.87
2024-03-12T23:13:23.063Z,6.70
2024-03-12T23:15:55.051Z,7.10
2024-03-12T23:18:27.671Z,7.30
2024-03-12T23:21:03.952Z,5.90
2024-03-12T23:23:39.540Z,5.73
2024-03-12T23:26:12.151Z,6.43
2024-03-12T23:28:44.205Z,7.03
2024-03-12T23:31:16.332Z,6.93
2024-03-12T23:33:48.304Z,6.27
2024-03-12T23:36:20.240Z,6.17
2024-03-12T23:38:52.318Z,6.93
2024-03-12T23:41:24.292Z,6.80
2024-03-12T23:43:56.359Z,6.23
2024-03-12T23:46:28.497Z,5.97
2024-03-12T23:49:00.668Z,6.37
2024-03-12T23:51:32.567Z,6.43
2024-03-12T23:54:04.562Z,7.03
2024-03-12T23:56:36.507Z,6.57
2024-03-12T23:59:08.497Z,5.93
